Time;durP1;ratioP1;P1;durP2;ratioP2;P2;SDS_P1;SDS_P2;PMS_P1;PMS_P2;Temp;Humidity;BMP_temperature;BMP_pressure;BME280_temperature;BME280_humidity;BME280_pressure;Samples;Min_cycle;Max_cycle;Signal;HPM_P1;HPM_P2
2022/07/19 00:02:59;;;;;;;;;;;;;;;21.67;52.09;96765.34;6149033;28;20005;-65
2022/07/19 00:06:03;;;;;;;;;;;;;;;21.67;51.93;96766.19;6148934;28;19930;-64
2022/07/19 00:09:08;;;;;;;;;;;;;;;21.69;53.22;96760.66;6149188;28;19927;-66
2022/07/19 00:12:13;;;;;;;;;;;;;;;21.73;54.29;96761.97;6149105;28;19923;-65
2022/07/19 00:15:15;;;;;;;;;;;;;;;21.74;52.27;96752.97;6148814;28;19927;-65
2022/07/19 00:18:19;;;;;;;;;;;;;;;21.75;51.58;96743.91;6153396;29;20380;-65
2022/07/19 00:21:27;;;;;;;;;;;;;;;21.76;51.77;96734.84;6153684;28;19965;-66
2022/07/19 00:24:28;;;;;;;;;;;;;;;21.77;52.12;96725.81;6153770;28;19927;-65
2022/07/19 00:27:32;;;;;;;;;;;;;;;21.77;52.29;96707.06;6153568;28;19997;-65
2022/07/19 00:30:33;;;;;;;;;;;;;;;21.81;52.02;96708.38;6153904;28;19926;-65
2022/07/19 00:33:37;;;;;;;;;;;;;;;21.88;51.75;96701.34;6153503;29;19930;-65
2022/07/19 00:36:40;;;;;;;;;;;;;;;21.94;51.87;96700.63;6153247;28;19926;-65
2022/07/19 00:39:44;;;;;;;;;;;;;;;22.00;51.68;96692.91;6153434;29;19926;-65
2022/07/19 00:42:45;;;;;;;;;;;;;;;22.08;51.60;96684.81;6153229;29;19927;-65
2022/07/19 00:45:51;;;;;;;;;;;;;;;22.16;51.85;96690.13;6152851;29;20415;-66
2022/07/19 00:48:58;;;;;;;;;;;;;;;22.24;51.76;96692.78;6153323;28;20396;-65
2022/07/19 00:52:03;;;;;;;;;;;;;;;22.27;51.66;96687.06;6153111;28;20344;-65
2022/07/19 00:55:04;;;;;;;;;;;;;;;22.32;52.01;96679.34;6153136;29;19927;-64
2022/07/19 00:58:08;;;;;;;;;;;;;;;22.26;52.36;96663.97;6152929;28;19926;-66
2022/07/19 01:01:11;;;;;;;;;;;;;;;22.16;52.64;96669.50;6152978;28;19926;-65
2022/07/19 01:04:12;;;;;;;;;;;;;;;22.13;52.80;96669.03;6152611;29;20475;-65
2022/07/19 01:07:13;;;;;;;;;;;;;;;22.17;52.80;96665.00;6152510;29;20297;-65
2022/07/19 01:10:17;;;;;;;;;;;;;;;22.22;52.61;96665.31;6152841;28;20368;-66
2022/07/19 01:13:23;;;;;;;;;;;;;;;22.33;52.72;96658.72;6152520;28;20016;-66
2022/07/19 01:16:24;;;;;;;;;;;;;;;22.39;52.57;96648.13;6152259;28;20401;-65
2022/07/19 01:19:25;;;;;;;;;;;;;;;22.40;52.78;96639.06;6152020;29;19936;-66
2022/07/19 01:22:29;;;;;;;;;;;;;;;22.39;52.67;96653.50;6152454;28;20021;-67
2022/07/19 01:25:34;;;;;;;;;;;;;;;22.38;52.55;96656.34;6152439;28;20286;-65
2022/07/19 01:28:37;;;;;;;;;;;;;;;22.29;52.92;96652.88;6151736;28;20439;-65
2022/07/19 01:31:41;;;;;;;;;;;;;;;22.29;52.62;96641.34;6150913;29;19934;-65
2022/07/19 01:34:45;;;;;;;;;;;;;;;22.38;52.64;96634.91;6152005;28;20396;-65
2022/07/19 01:37:49;;;;;;;;;;;;;;;22.49;52.31;96647.06;6151904;28;19927;-64
2022/07/19 01:40:54;;;;;;;;;;;;;;;22.47;52.46;96654.44;6152067;28;19926;-65
2022/07/19 01:43:55;;;;;;;;;;;;;;;22.52;52.41;96647.53;6151972;29;19934;-64
2022/07/19 01:46:59;;;;;;;;;;;;;;;22.65;52.12;96649.63;6151876;28;19926;-65
2022/07/19 01:50:03;;;;;;;;;;;;;;;22.73;51.93;96644.19;6151642;28;19927;-65
2022/07/19 01:53:07;;;;;;;;;;;;;;;22.80;51.83;96641.59;6151606;28;19933;-65
2022/07/19 01:56:10;;;;;;;;;;;;;;;22.77;51.84;96637.44;6151784;29;20377;-66
2022/07/19 01:59:17;;;;;;;;;;;;;;;22.70;51.92;96641.84;6151329;29;19927;-65
2022/07/19 02:02:19;;;;;;;;;;;;;;;22.54;52.31;96633.94;6151340;28;19934;-66
2022/07/19 02:05:20;;;;;;;;;;;;;;;22.35;53.10;96635.25;6151086;28;20017;-65
2022/07/19 02:08:24;;;;;;;;;;;;;;;22.19;52.86;96630.84;6151319;28;19927;-65
2022/07/19 02:11:34;;;;;;;;;;;;;;;22.11;53.23;96625.53;6151192;29;19927;-65
2022/07/19 02:14:35;;;;;;;;;;;;;;;22.07;53.10;96621.53;6151126;28;19927;-65
2022/07/19 02:17:39;;;;;;;;;;;;;;;22.09;53.28;96619.50;6151110;28;19941;-65
2022/07/19 02:20:42;;;;;;;;;;;;;;;22.10;53.32;96626.53;6151076;28;19927;-66
2022/07/19 02:23:46;;;;;;;;;;;;;;;22.18;52.95;96621.97;6151006;28;19930;-66
2022/07/19 02:26:52;;;;;;;;;;;;;;;22.25;52.91;96614.06;6150729;28;19927;-66
2022/07/19 02:29:53;;;;;;;;;;;;;;;22.35;52.84;96608.47;6150627;28;19926;-66
2022/07/19 02:32:54;;;;;;;;;;;;;;;22.41;52.81;96603.19;6150425;28;20317;-65
2022/07/19 02:35:57;;;;;;;;;;;;;;;22.48;52.84;96607.88;6150765;29;19942;-66
2022/07/19 02:39:01;;;;;;;;;;;;;;;22.55;52.71;96608.78;6149792;28;19927;-66
2022/07/19 02:42:04;;;;;;;;;;;;;;;22.60;52.81;96601.03;6150651;28;19926;-65
2022/07/19 02:45:05;;;;;;;;;;;;;;;22.70;52.36;96600.78;6150190;28;19937;-66
2022/07/19 02:48:08;;;;;;;;;;;;;;;22.78;52.52;96592.66;6150276;28;20305;-66
2022/07/19 02:51:11;;;;;;;;;;;;;;;22.88;52.37;96592.41;6150247;28;19926;-65
2022/07/19 02:54:14;;;;;;;;;;;;;;;22.94;52.03;96583.63;6149752;28;20424;-65
2022/07/19 02:57:15;;;;;;;;;;;;;;;23.10;51.97;96575.44;6150213;29;20002;-66
2022/07/19 03:00:16;;;;;;;;;;;;;;;23.31;51.33;96588.91;6149831;28;19927;-65
2022/07/19 03:06:40;;;;;;;;;;;;;;;24.03;50.17;96630.31;6150135;28;19926;-65
2022/07/19 03:09:41;;;;;;;;;;;;;;;24.63;48.95;96647.09;6150008;28;19926;-65
2022/07/19 03:12:42;;;;;;;;;;;;;;;25.06;47.76;96684.72;6149674;28;19933;-65
2022/07/19 03:15:48;;;;;;;;;;;;;;;25.44;47.26;96698.66;6149713;29;19930;-66
2022/07/19 03:18:54;;;;;;;;;;;;;;;25.74;46.83;96693.06;6149956;28;19926;-65
2022/07/19 03:21:57;;;;;;;;;;;;;;;25.98;46.04;96659.38;6149710;28;19926;-65
2022/07/19 03:25:01;;;;;;;;;;;;;;;25.92;46.26;96565.84;6149504;28;19930;-65
2022/07/19 03:28:02;;;;;;;;;;;;;;;25.86;46.05;96524.38;6149174;28;19927;-66
2022/07/19 03:31:08;;;;;;;;;;;;;;;25.66;46.57;96569.28;6149387;28;19961;-66
2022/07/19 03:34:09;;;;;;;;;;;;;;;25.50;46.53;96567.75;6149030;28;19926;-66
2022/07/19 03:37:10;;;;;;;;;;;;;;;25.36;47.31;96569.53;6149137;28;20308;-66
2022/07/19 03:40:13;;;;;;;;;;;;;;;25.22;47.62;96571.38;6149314;28;20006;-65
2022/07/19 03:43:15;;;;;;;;;;;;;;;25.29;47.47;96560.63;6164199;28;19989;-65
2022/07/19 03:46:20;;;;;;;;;;;;;;;25.12;47.57;96564.63;6148797;28;19927;-65
2022/07/19 03:49:23;;;;;;;;;;;;;;;25.16;47.71;96576.69;6148869;28;19926;-65
2022/07/19 03:52:27;;;;;;;;;;;;;;;25.06;47.84;96572.47;6149247;29;19926;-65
2022/07/19 03:55:30;;;;;;;;;;;;;;;25.40;47.36;96584.28;6149005;29;19926;-65
2022/07/19 03:58:34;;;;;;;;;;;;;;;26.12;46.17;96590.16;6149023;28;19927;-66
2022/07/19 04:01:37;;;;;;;;;;;;;;;26.68;44.64;96586.31;6148875;29;19933;-66
2022/07/19 04:04:43;;;;;;;;;;;;;;;26.86;44.36;96563.06;6148956;28;19926;-66
2022/07/19 04:07:44;;;;;;;;;;;;;;;27.03;43.62;96554.50;6149010;28;20379;-66
2022/07/19 04:10:47;;;;;;;;;;;;;;;27.04;43.80;96542.66;6148708;28;19927;-65
2022/07/19 04:13:51;;;;;;;;;;;;;;;26.86;43.88;96519.88;6148937;28;19927;-65
2022/07/19 04:16:54;;;;;;;;;;;;;;;26.83;43.64;96509.47;6148924;28;20429;-66
2022/07/19 04:19:59;;;;;;;;;;;;;;;27.01;42.93;96500.72;6148641;29;20033;-66
2022/07/19 04:23:03;;;;;;;;;;;;;;;27.12;42.04;96474.94;6148792;28;19926;-66
2022/07/19 04:26:07;;;;;;;;;;;;;;;26.87;41.83;96462.13;6148940;28;19922;-66
2022/07/19 04:29:11;;;;;;;;;;;;;;;26.88;41.51;96447.56;6148785;28;19927;-66
2022/07/19 04:32:17;;;;;;;;;;;;;;;26.75;41.45;96447.63;6148559;29;19934;-65
2022/07/19 04:35:18;;;;;;;;;;;;;;;26.82;41.57;96458.41;6148959;28;19927;-66
2022/07/19 04:38:21;;;;;;;;;;;;;;;27.39;40.48;96474.84;6148630;28;19926;-66
2022/07/19 04:41:22;;;;;;;;;;;;;;;27.71;39.79;96468.44;6148724;28;20312;-65
2022/07/19 04:44:26;;;;;;;;;;;;;;;27.90;39.29;96473.94;6148456;28;20316;-65
2022/07/19 04:47:27;;;;;;;;;;;;;;;29.13;36.76;96480.56;6148192;28;20029;-65
2022/07/19 04:50:30;;;;;;;;;;;;;;;30.83;33.53;96474.75;6148354;29;19926;-65
2022/07/19 04:53:35;;;;;;;;;;;;;;;32.61;31.19;96479.28;6148439;28;19926;-66
2022/07/19 04:56:36;;;;;;;;;;;;;;;34.58;27.81;96484.88;6148405;28;19933;-65
2022/07/19 04:59:40;;;;;;;;;;;;;;;36.01;25.79;96477.38;6148511;28;19927;-65
2022/07/19 05:02:43;;;;;;;;;;;;;;;37.48;24.81;96480.28;6149876;28;20317;-65
2022/07/19 05:05:47;;;;;;;;;;;;;;;36.33;24.81;96487.28;6152750;28;19926;-65
2022/07/19 05:08:48;;;;;;;;;;;;;;;34.68;26.20;96465.81;6152347;29;19994;-65
2022/07/19 05:11:52;;;;;;;;;;;;;;;34.22;26.26;96462.69;6152587;29;20017;-65
2022/07/19 05:14:53;;;;;;;;;;;;;;;36.01;24.50;96460.94;6152357;28;19927;-65
2022/07/19 05:17:56;;;;;;;;;;;;;;;38.37;22.16;96464.63;6152401;28;20042;-65
2022/07/19 05:21:04;;;;;;;;;;;;;;;40.07;19.49;96445.13;6152417;28;19930;-65
2022/07/19 05:24:09;;;;;;;;;;;;;;;40.74;19.24;96452.31;6152073;29;19933;-65
2022/07/19 05:27:10;;;;;;;;;;;;;;;41.97;17.56;96438.84;6152137;28;20285;-65
2022/07/19 05:30:14;;;;;;;;;;;;;;;42.77;16.72;96437.94;6152178;28;19934;-65
2022/07/19 05:33:17;;;;;;;;;;;;;;;42.56;17.23;96436.84;6152032;29;19929;-65
2022/07/19 05:36:20;;;;;;;;;;;;;;;40.61;18.71;96437.38;6152059;28;19930;-65
2022/07/19 05:39:24;;;;;;;;;;;;;;;39.21;19.77;96425.88;6151843;29;19922;-66
2022/07/19 05:42:28;;;;;;;;;;;;;;;39.86;19.68;96406.06;6151733;29;19927;-66
2022/07/19 05:45:31;;;;;;;;;;;;;;;42.24;16.68;96411.09;6151456;29;19926;-65
2022/07/19 05:48:37;;;;;;;;;;;;;;;43.14;15.70;96405.41;6151653;28;19926;-65
2022/07/19 05:51:41;;;;;;;;;;;;;;;43.84;15.19;96400.03;6152002;28;19926;-66
2022/07/19 05:54:44;;;;;;;;;;;;;;;44.13;15.55;96391.88;6151608;28;19922;-65
2022/07/19 05:57:49;;;;;;;;;;;;;;;45.11;14.07;96391.31;6151379;28;19931;-64
2022/07/19 06:04:14;;;;;;;;;;;;;;;44.41;14.16;96391.53;6151426;28;20013;-66
2022/07/19 06:07:20;;;;;;;;;;;;;;;43.14;14.93;96393.50;6151060;28;19927;-66
2022/07/19 06:10:21;;;;;;;;;;;;;;;43.79;14.50;96391.88;6150933;28;20065;-65
2022/07/19 06:13:22;;;;;;;;;;;;;;;43.86;14.90;96386.66;6164731;28;20013;-66
2022/07/19 06:16:26;;;;;;;;;;;;;;;45.21;13.81;96390.94;6150991;28;19933;-66
2022/07/19 06:19:30;;;;;;;;;;;;;;;45.52;13.28;96362.81;6151083;28;20344;-66
2022/07/19 06:22:33;;;;;;;;;;;;;;;42.97;15.32;96348.00;6150902;28;19926;-66
2022/07/19 06:25:36;;;;;;;;;;;;;;;42.04;15.97;96329.50;6150702;28;19922;-65
2022/07/19 06:28:43;;;;;;;;;;;;;;;42.77;15.65;96312.63;6150579;28;19927;-66
2022/07/19 06:31:48;;;;;;;;;;;;;;;43.56;14.80;96313.63;6150381;28;19926;-65
2022/07/19 06:34:51;;;;;;;;;;;;;;;43.48;14.94;96331.84;6150861;28;19948;-65
2022/07/19 06:37:55;;;;;;;;;;;;;;;42.17;15.77;96319.47;6150590;29;19926;-65
2022/07/19 06:40:59;;;;;;;;;;;;;;;42.97;15.61;96311.22;6150434;28;19938;-65
2022/07/19 06:44:02;;;;;;;;;;;;;;;42.68;15.84;96304.28;6150232;29;19933;-66
2022/07/19 06:47:05;;;;;;;;;;;;;;;40.35;17.61;96301.91;6150041;28;19927;-66
2022/07/19 06:50:08;;;;;;;;;;;;;;;38.79;19.32;96314.69;6150189;29;20020;-65
2022/07/19 06:53:11;;;;;;;;;;;;;;;37.55;20.56;96304.31;6149925;28;19922;-66
2022/07/19 06:56:15;;;;;;;;;;;;;;;36.36;22.09;96292.22;6150116;28;20320;-66
2022/07/19 06:59:18;;;;;;;;;;;;;;;36.06;22.47;96285.69;6149795;28;20020;-66
2022/07/19 07:02:24;;;;;;;;;;;;;;;36.03;22.50;96291.69;6149698;28;20021;-65
2022/07/19 07:05:31;;;;;;;;;;;;;;;36.13;22.40;96294.47;6149078;28;20393;-66
2022/07/19 07:08:34;;;;;;;;;;;;;;;36.41;22.43;96284.00;6149359;28;19930;-66
2022/07/19 07:11:38;;;;;;;;;;;;;;;37.24;21.75;96264.16;6163919;28;20082;-65
2022/07/19 07:14:39;;;;;;;;;;;;;;;40.20;18.76;96252.59;6149406;28;20427;-65
2022/07/19 07:17:47;;;;;;;;;;;;;;;42.95;16.21;96253.44;6149473;28;19986;-65
2022/07/19 07:20:51;;;;;;;;;;;;;;;45.19;14.31;96271.06;6149471;28;19926;-66
2022/07/19 07:23:55;;;;;;;;;;;;;;;46.49;13.27;96271.81;6149329;28;19997;-65
2022/07/19 07:26:58;;;;;;;;;;;;;;;47.21;12.61;96253.44;6148911;28;19934;-65
2022/07/19 07:30:01;;;;;;;;;;;;;;;46.67;13.01;96236.22;6149492;28;19927;-65
2022/07/19 07:33:06;;;;;;;;;;;;;;;44.36;14.84;96233.59;6149103;28;19922;-65
2022/07/19 07:36:12;;;;;;;;;;;;;;;44.66;14.65;96239.19;6149236;28;20404;-66
2022/07/19 07:39:13;;;;;;;;;;;;;;;45.70;13.60;96224.56;6149300;28;20411;-66
2022/07/19 07:42:17;;;;;;;;;;;;;;;45.35;13.71;96241.50;6147962;29;19930;-66
2022/07/19 07:45:21;;;;;;;;;;;;;;;45.80;13.56;96228.84;6148639;28;19926;-65
2022/07/19 07:48:22;;;;;;;;;;;;;;;45.25;13.66;96216.94;6148946;28;19934;-65
2022/07/19 07:51:24;;;;;;;;;;;;;;;44.82;13.88;96229.16;6148660;28;19926;-65
2022/07/19 07:54:25;;;;;;;;;;;;;;;43.26;15.28;96225.66;6148453;28;19945;-65
2022/07/19 07:57:31;;;;;;;;;;;;;;;43.60;14.72;96207.41;6149021;28;20029;-64
2022/07/19 08:00:37;;;;;;;;;;;;;;;44.21;14.18;96206.41;6148937;29;20393;-65
2022/07/19 08:03:38;;;;;;;;;;;;;;;44.06;14.25;96197.50;6149052;28;19926;-65
2022/07/19 08:06:42;;;;;;;;;;;;;;;43.93;14.22;96199.31;6149092;28;19933;-65
2022/07/19 08:09:43;;;;;;;;;;;;;;;42.65;15.35;96182.41;6148958;29;19926;-65
2022/07/19 08:12:49;;;;;;;;;;;;;;;41.86;15.88;96179.31;6148668;29;19926;-64
2022/07/19 08:15:50;;;;;;;;;;;;;;;42.81;15.10;96186.34;6148560;28;19926;-67
2022/07/19 08:18:53;;;;;;;;;;;;;;;42.45;15.57;96190.16;6148637;28;19932;-65
2022/07/19 08:21:57;;;;;;;;;;;;;;;42.92;15.26;96197.91;6148634;29;20002;-65
2022/07/19 08:25:00;;;;;;;;;;;;;;;42.43;15.17;96183.31;6148805;28;20020;-66
2022/07/19 08:28:04;;;;;;;;;;;;;;;42.06;15.90;96160.56;6148885;28;20389;-66
2022/07/19 08:31:07;;;;;;;;;;;;;;;42.89;15.44;96168.13;6148427;28;19926;-65
2022/07/19 08:34:11;;;;;;;;;;;;;;;44.56;13.99;96154.34;6148769;28;19926;-65
2022/07/19 08:37:17;;;;;;;;;;;;;;;44.72;14.01;96149.03;6150046;28;19927;-65
2022/07/19 08:40:21;;;;;;;;;;;;;;;44.56;13.77;96182.94;6153172;29;20336;-65
2022/07/19 08:43:22;;;;;;;;;;;;;;;43.26;14.50;96175.00;6153096;29;19927;-66
2022/07/19 08:46:28;;;;;;;;;;;;;;;42.69;14.91;96156.53;6153090;28;20012;-65
2022/07/19 08:49:29;;;;;;;;;;;;;;;43.77;14.33;96184.38;6152419;28;20050;-66
2022/07/19 08:52:35;;;;;;;;;;;;;;;43.96;14.06;96161.81;6152964;28;19926;-65
2022/07/19 08:55:38;;;;;;;;;;;;;;;44.80;13.40;96170.41;6152870;28;19922;-66
2022/07/19 08:58:41;;;;;;;;;;;;;;;45.09;13.30;96152.03;6153132;29;19969;-65
2022/07/19 09:01:43;;;;;;;;;;;;;;;45.69;12.89;96161.78;6152499;28;19929;-65
2022/07/19 09:05:05;;;;;;;;;;;;;;;44.13;14.46;96153.44;6152654;28;20036;-65
2022/07/19 09:08:09;;;;;;;;;;;;;;;43.53;14.61;96151.63;6152486;29;20408;-65
2022/07/19 09:11:31;;;;;;;;;;;;;;;43.87;14.57;96159.06;6152486;28;19926;-64
2022/07/19 09:14:35;;;;;;;;;;;;;;;43.96;14.35;96164.59;6151001;29;20020;-65
2022/07/19 09:17:36;;;;;;;;;;;;;;;43.86;14.51;96148.31;6152382;28;19926;-64
2022/07/19 09:20:41;;;;;;;;;;;;;;;43.89;15.04;96139.34;6151968;28;19930;-65
2022/07/19 09:23:42;;;;;;;;;;;;;;;44.18;14.58;96146.88;6151745;28;20408;-64
2022/07/19 09:26:56;;;;;;;;;;;;;;;44.46;14.68;96116.72;6152195;28;19931;-65
2022/07/19 09:30:02;;;;;;;;;;;;;;;45.14;14.31;96135.19;6151850;29;19926;-65
2022/07/19 09:33:10;;;;;;;;;;;;;;;45.68;13.70;96126.81;6151718;28;19930;-64
2022/07/19 09:36:12;;;;;;;;;;;;;;;46.08;13.56;96135.31;6151291;28;20304;-65
2022/07/19 09:39:26;;;;;;;;;;;;;;;46.11;13.37;96108.78;6152080;28;19933;-66
2022/07/19 09:42:36;;;;;;;;;;;;;;;45.92;13.59;96110.19;6151908;28;19926;-65
2022/07/19 09:45:37;;;;;;;;;;;;;;;45.76;13.34;96123.13;6151536;28;19926;-64
2022/07/19 09:48:42;;;;;;;;;;;;;;;44.95;13.58;96103.16;6151395;28;19949;-64
2022/07/19 09:51:45;;;;;;;;;;;;;;;45.25;13.35;96103.88;6150410;29;20300;-64
2022/07/19 09:54:50;;;;;;;;;;;;;;;45.94;13.01;96100.69;6151470;28;19926;-65
2022/07/19 09:57:52;;;;;;;;;;;;;;;46.46;12.88;96088.84;6151626;28;20379;-64
2022/07/19 10:00:53;;;;;;;;;;;;;;;46.14;13.35;96091.41;6151382;29;20388;-65
2022/07/19 10:03:56;;;;;;;;;;;;;;;45.55;13.92;96097.38;6151296;29;19929;-65
2022/07/19 10:07:00;;;;;;;;;;;;;;;45.67;13.54;96102.97;6151400;28;20424;-65
2022/07/19 10:10:10;;;;;;;;;;;;;;;45.28;13.52;96099.59;6151078;28;19926;-65
2022/07/19 10:13:12;;;;;;;;;;;;;;;45.17;13.67;96095.63;6151215;28;19926;-65
2022/07/19 10:16:17;;;;;;;;;;;;;;;45.66;13.50;96090.22;6150990;28;20400;-65
2022/07/19 10:19:26;;;;;;;;;;;;;;;45.56;13.57;96085.13;6151040;28;19926;-65
2022/07/19 10:22:30;;;;;;;;;;;;;;;44.66;14.59;96117.09;6150831;28;19926;-65
2022/07/19 10:25:39;;;;;;;;;;;;;;;44.09;14.81;96082.38;6150713;28;19926;-64
2022/07/19 10:28:43;;;;;;;;;;;;;;;44.07;14.68;96081.88;6150645;28;19926;-65
2022/07/19 10:32:02;;;;;;;;;;;;;;;44.43;14.54;96086.91;6150679;28;20323;-65
2022/07/19 10:35:19;;;;;;;;;;;;;;;44.89;14.30;96107.28;6149124;29;19933;-66
2022/07/19 10:38:22;;;;;;;;;;;;;;;45.22;14.31;96092.66;6150629;28;19931;-66
2022/07/19 10:41:26;;;;;;;;;;;;;;;44.59;15.16;96099.03;6150423;28;19926;-65
2022/07/19 10:44:29;;;;;;;;;;;;;;;43.41;15.66;96090.59;6149545;28;19931;-65
2022/07/19 10:47:53;;;;;;;;;;;;;;;42.53;16.67;96103.63;6150227;28;20521;-65
2022/07/19 10:50:58;;;;;;;;;;;;;;;41.88;17.71;96096.13;6150471;28;19930;-65
2022/07/19 10:54:03;;;;;;;;;;;;;;;41.79;18.60;96081.47;6150297;28;20384;-65
2022/07/19 10:57:06;;;;;;;;;;;;;;;41.15;18.63;96081.75;6150122;28;20300;-66
2022/07/19 11:00:19;;;;;;;;;;;;;;;40.76;19.06;96080.47;6149128;28;20472;-65
2022/07/19 11:03:27;;;;;;;;;;;;;;;40.15;19.73;96083.44;6149986;28;20340;-65
2022/07/19 11:06:30;;;;;;;;;;;;;;;39.82;20.28;96095.72;6149676;28;20040;-64
2022/07/19 11:09:43;;;;;;;;;;;;;;;40.34;20.49;96090.78;6149666;28;20021;-64
2022/07/19 11:12:47;;;;;;;;;;;;;;;40.65;20.06;96095.63;6149633;28;19937;-66
2022/07/19 11:15:56;;;;;;;;;;;;;;;40.79;19.89;96099.16;6149747;28;19922;-66
2022/07/19 11:19:04;;;;;;;;;;;;;;;40.47;20.25;96100.97;6149724;28;19983;-65
2022/07/19 11:22:11;;;;;;;;;;;;;;;39.96;20.89;96124.06;6149469;28;19922;-63
2022/07/19 11:25:15;;;;;;;;;;;;;;;39.56;21.33;96104.44;6149436;28;19933;-65
2022/07/19 11:28:20;;;;;;;;;;;;;;;39.15;21.63;96116.13;6149417;28;20317;-65
2022/07/19 11:31:22;;;;;;;;;;;;;;;38.71;21.35;96106.38;6148010;29;20404;-65
2022/07/19 11:34:27;;;;;;;;;;;;;;;38.52;22.00;96102.81;6149182;28;19944;-66
2022/07/19 11:37:32;;;;;;;;;;;;;;;38.32;22.14;96112.94;6149552;28;20420;-66
2022/07/19 11:40:36;;;;;;;;;;;;;;;38.13;21.51;96112.09;6149632;28;19993;-65
2022/07/19 11:43:38;;;;;;;;;;;;;;;38.08;21.43;96112.19;6149249;28;20267;-66
2022/07/19 11:46:42;;;;;;;;;;;;;;;37.62;22.69;96120.88;6149129;28;19933;-66
2022/07/19 11:49:46;;;;;;;;;;;;;;;37.41;22.79;96112.03;6149001;29;19989;-65
2022/07/19 11:52:49;;;;;;;;;;;;;;;37.03;22.96;96111.84;6148889;28;19927;-66
2022/07/19 11:55:50;;;;;;;;;;;;;;;36.51;23.75;96119.53;6148984;28;19923;-66
2022/07/19 11:58:52;;;;;;;;;;;;;;;36.52;24.22;96123.06;6148859;29;19981;-66
2022/07/19 12:01:54;;;;;;;;;;;;;;;36.26;24.82;96117.75;6149152;28;19934;-65
2022/07/19 12:04:56;;;;;;;;;;;;;;;36.00;25.12;96116.19;6148651;28;20311;-67
2022/07/19 12:08:00;;;;;;;;;;;;;;;35.67;24.98;96124.81;6148610;28;19980;-65
2022/07/19 12:11:14;;;;;;;;;;;;;;;35.39;25.25;96133.59;6147485;28;19990;-66
2022/07/19 12:14:23;;;;;;;;;;;;;;;35.11;25.37;96127.59;6153717;28;20293;-66
2022/07/19 12:17:27;;;;;;;;;;;;;;;34.92;25.09;96140.13;6153596;28;20301;-65
2022/07/19 12:20:28;;;;;;;;;;;;;;;34.88;25.02;96156.25;6153596;28;19930;-65
2022/07/19 12:23:31;;;;;;;;;;;;;;;34.73;25.27;96151.56;6153284;28;19926;-65
2022/07/19 12:26:35;;;;;;;;;;;;;;;34.45;25.93;96163.78;6153208;28;20029;-65
2022/07/19 12:29:43;;;;;;;;;;;;;;;33.98;26.52;96161.94;6153034;29;19926;-66
2022/07/19 12:32:49;;;;;;;;;;;;;;;33.71;27.60;96172.97;6152983;28;20057;-66
2022/07/19 12:35:50;;;;;;;;;;;;;;;33.50;27.11;96172.00;6151831;29;20017;-65
2022/07/19 12:38:54;;;;;;;;;;;;;;;33.12;26.67;96168.41;6152838;28;20321;-66
2022/07/19 12:42:00;;;;;;;;;;;;;;;32.79;27.40;96164.84;6153166;28;19922;-65
2022/07/19 12:45:01;;;;;;;;;;;;;;;32.56;28.77;96171.41;6152646;29;19933;-66
2022/07/19 12:48:06;;;;;;;;;;;;;;;32.69;28.78;96177.53;6152665;29;19926;-65
2022/07/19 12:51:07;;;;;;;;;;;;;;;32.39;29.51;96174.19;6152724;29;19927;-66
2022/07/19 12:54:08;;;;;;;;;;;;;;;32.28;30.14;96190.66;6167650;28;19931;-65
2022/07/19 12:57:09;;;;;;;;;;;;;;;31.83;31.16;96168.03;6152235;28;19926;-66
2022/07/19 13:00:14;;;;;;;;;;;;;;;31.62;31.34;96169.66;6152306;28;20013;-66
2022/07/19 13:03:20;;;;;;;;;;;;;;;31.69;31.98;96173.00;6152550;28;19927;-67
2022/07/19 13:06:22;;;;;;;;;;;;;;;31.47;31.85;96180.28;6152167;29;19927;-66
2022/07/19 13:09:25;;;;;;;;;;;;;;;31.43;32.81;96185.41;6152214;28;19926;-65
2022/07/19 13:12:26;;;;;;;;;;;;;;;31.08;34.04;96188.31;6152193;29;19930;-66
2022/07/19 13:15:29;;;;;;;;;;;;;;;30.85;34.31;96195.53;6152387;28;19933;-65
2022/07/19 13:18:31;;;;;;;;;;;;;;;30.69;34.90;96203.63;6152363;29;19926;-66
2022/07/19 13:21:34;;;;;;;;;;;;;;;30.52;35.00;96212.56;6151960;28;20088;-66
2022/07/19 13:24:41;;;;;;;;;;;;;;;30.43;35.30;96219.41;6151262;28;19931;-65
2022/07/19 13:27:47;;;;;;;;;;;;;;;30.45;34.51;96238.19;6152194;28;19931;-65
2022/07/19 13:30:48;;;;;;;;;;;;;;;30.54;31.21;96220.44;6151976;29;19926;-66
2022/07/19 13:33:54;;;;;;;;;;;;;;;30.23;31.15;96214.41;6151975;29;19930;-66
2022/07/19 13:36:55;;;;;;;;;;;;;;;30.08;30.80;96208.63;6151396;28;19926;-66
2022/07/19 13:39:56;;;;;;;;;;;;;;;30.06;31.09;96216.19;6166405;28;19934;-66
2022/07/19 13:43:00;;;;;;;;;;;;;;;29.93;31.43;96220.81;6151109;28;19926;-65
2022/07/19 13:46:01;;;;;;;;;;;;;;;29.76;31.79;96236.16;6151498;28;19934;-66
2022/07/19 13:49:02;;;;;;;;;;;;;;;29.63;32.46;96249.94;6150949;28;19926;-66
2022/07/19 13:52:06;;;;;;;;;;;;;;;29.59;32.75;96240.59;6150900;28;19933;-66
2022/07/19 13:55:12;;;;;;;;;;;;;;;29.42;33.33;96235.88;6151141;29;19926;-65
2022/07/19 13:58:13;;;;;;;;;;;;;;;29.18;33.91;96226.06;6151282;28;20307;-66
2022/07/19 14:01:15;;;;;;;;;;;;;;;29.03;34.08;96227.31;6151339;28;19926;-66
2022/07/19 14:04:16;;;;;;;;;;;;;;;28.96;33.93;96221.16;6151180;28;19934;-67
2022/07/19 14:07:19;;;;;;;;;;;;;;;28.77;34.19;96211.44;6151401;28;19926;-65
2022/07/19 14:10:23;;;;;;;;;;;;;;;28.70;34.36;96218.81;6150746;28;19926;-66
2022/07/19 14:13:27;;;;;;;;;;;;;;;28.74;34.48;96222.72;6151085;28;20377;-66
2022/07/19 14:16:28;;;;;;;;;;;;;;;28.57;34.54;96217.13;6150849;28;19968;-66
2022/07/19 14:19:35;;;;;;;;;;;;;;;28.45;34.88;96211.69;6150815;28;19927;-66
2022/07/19 14:22:39;;;;;;;;;;;;;;;28.56;35.91;96207.34;6150657;29;20045;-67
2022/07/19 14:25:40;;;;;;;;;;;;;;;28.30;36.08;96135.44;6150616;28;20344;-66
2022/07/19 14:28:42;;;;;;;;;;;;;;;28.10;36.31;96108.66;6150460;28;19933;-65
2022/07/19 14:31:45;;;;;;;;;;;;;;;28.07;35.91;96088.31;6150177;28;20447;-66
2022/07/19 14:34:46;;;;;;;;;;;;;;;28.04;36.20;96071.72;6149931;28;19949;-66
2022/07/19 14:37:54;;;;;;;;;;;;;;;28.02;36.85;96074.66;6150659;28;19926;-65
2022/07/19 14:40:55;;;;;;;;;;;;;;;27.99;37.08;96069.69;6150576;28;19926;-66
2022/07/19 14:43:59;;;;;;;;;;;;;;;28.03;37.66;96059.28;6150237;29;20401;-67
2022/07/19 14:47:02;;;;;;;;;;;;;;;27.99;37.72;96037.25;6150474;28;19926;-66
2022/07/19 14:50:04;;;;;;;;;;;;;;;27.89;38.15;96020.78;6150093;29;19932;-65
2022/07/19 14:53:06;;;;;;;;;;;;;;;27.83;37.94;96032.47;6149893;28;19933;-66
2022/07/19 14:56:07;;;;;;;;;;;;;;;27.73;38.03;96070.84;6149711;28;19929;-66
2022/07/19 14:59:11;;;;;;;;;;;;;;;27.77;38.44;96093.69;6149786;29;20408;-66
2022/07/19 15:02:13;;;;;;;;;;;;;;;27.69;38.29;96081.28;6149813;29;19923;-66
2022/07/19 15:05:14;;;;;;;;;;;;;;;27.63;38.45;96095.72;6149936;28;19927;-65
2022/07/19 15:08:17;;;;;;;;;;;;;;;27.58;38.88;96109.06;6149494;29;20009;-66
2022/07/19 15:11:18;;;;;;;;;;;;;;;27.54;38.89;96091.66;6149527;28;19931;-66
2022/07/19 15:14:21;;;;;;;;;;;;;;;27.43;39.00;96093.25;6149926;28;20320;-66
2022/07/19 15:17:25;;;;;;;;;;;;;;;27.36;39.15;96091.66;6149564;29;19927;-67
2022/07/19 15:20:26;;;;;;;;;;;;;;;27.27;39.78;96083.03;6149412;29;19949;-66
2022/07/19 15:23:30;;;;;;;;;;;;;;;27.23;39.70;96090.75;6149151;29;19926;-65
2022/07/19 15:26:34;;;;;;;;;;;;;;;27.26;40.32;96090.31;6149399;29;19933;-65
2022/07/19 15:29:38;;;;;;;;;;;;;;;27.14;39.84;96099.31;6149425;28;19936;-66
2022/07/19 15:32:41;;;;;;;;;;;;;;;27.11;39.75;96106.00;6148892;28;19934;-66
2022/07/19 15:35:44;;;;;;;;;;;;;;;27.09;42.21;96113.47;6149388;28;19941;-65
2022/07/19 15:38:45;;;;;;;;;;;;;;;27.12;41.23;96117.59;6149246;29;20009;-66
2022/07/19 15:41:49;;;;;;;;;;;;;;;26.96;42.10;96119.00;6149193;29;19926;-66
2022/07/19 15:44:50;;;;;;;;;;;;;;;26.69;42.09;96110.28;6148857;29;19933;-66
2022/07/19 15:47:51;;;;;;;;;;;;;;;26.63;42.60;96104.72;6148957;28;20416;-67
2022/07/19 15:50:54;;;;;;;;;;;;;;;26.40;42.62;96110.66;6149286;29;20308;-66
2022/07/19 15:53:59;;;;;;;;;;;;;;;26.30;42.61;96129.22;6149217;28;19926;-65
2022/07/19 15:57:02;;;;;;;;;;;;;;;26.21;43.14;96154.75;6148863;28;19927;-65
2022/07/19 16:00:07;;;;;;;;;;;;;;;26.04;43.09;96145.50;6147728;29;20381;-65
2022/07/19 16:03:11;;;;;;;;;;;;;;;25.87;43.02;96137.09;6148255;28;19937;-66
2022/07/19 16:06:18;;;;;;;;;;;;;;;25.73;42.66;96139.81;6148743;28;19993;-66